sensor_id;sensor_type;location;lat;lon;timestamp;temperature;humidity
7212;DHT22;3647;48.792;9.802;2023-02-01T05:18:01;4.50;99.90
7212;DHT22;3647;48.792;9.802;2023-02-01T05:20:28;4.60;99.90
7212;DHT22;3647;48.792;9.802;2023-02-01T05:22:55;4.60;99.90
7212;DHT22;3647;48.792;9.802;2023-02-01T05:25:22;4.60;99.90
7212;DHT22;3647;48.792;9.802;2023-02-01T05:27:48;4.60;99.90
7212;DHT22;3647;48.792;9.802;2023-02-01T05:30:16;4.60;99.90
7212;DHT22;3647;48.792;9.802;2023-02-01T05:32:42;4.60;99.90
7212;DHT22;3647;48.792;9.802;2023-02-01T05:35:10;4.60;99.90
7212;DHT22;3647;48.792;9.802;2023-02-01T05:37:37;4.60;99.90
7212;DHT22;3647;48.792;9.802;2023-02-01T05:40:05;4.60;99.90
7212;DHT22;3647;48.792;9.802;2023-02-01T05:42:32;4.60;99.90
7212;DHT22;3647;48.792;9.802;2023-02-01T05:44:58;4.90;99.90
7212;DHT22;3647;48.792;9.802;2023-02-01T05:47:25;4.60;99.90
7212;DHT22;3647;48.792;9.802;2023-02-01T05:49:53;4.60;99.90
7212;DHT22;3647;48.792;9.802;2023-02-01T05:52:21;4.60;99.90
7212;DHT22;3647;48.792;9.802;2023-02-01T05:54:48;5.00;99.90
7212;DHT22;3647;48.792;9.802;2023-02-01T05:57:15;4.60;99.90
7212;DHT22;3647;48.792;9.802;2023-02-01T10:09:52;5.20;99.90
7212;DHT22;3647;48.792;9.802;2023-02-01T10:15:49;5.20;99.90
7212;DHT22;3647;48.792;9.802;2023-02-01T10:21:23;5.20;99.90
7212;DHT22;3647;48.792;9.802;2023-02-01T10:24:11;5.20;99.90
7212;DHT22;3647;48.792;9.802;2023-02-01T10:26:44;5.10;99.90
7212;DHT22;3647;48.792;9.802;2023-02-01T10:29:16;5.10;99.90
7212;DHT22;3647;48.792;9.802;2023-02-01T10:31:45;5.10;99.90
7212;DHT22;3647;48.792;9.802;2023-02-01T10:34:17;5.00;99.90
7212;DHT22;3647;48.792;9.802;2023-02-01T10:36:52;5.00;99.90
7212;DHT22;3647;48.792;9.802;2023-02-01T10:39:20;5.10;99.90
7212;DHT22;3647;48.792;9.802;2023-02-01T10:41:48;5.20;99.90
7212;DHT22;3647;48.792;9.802;2023-02-01T10:44:17;5.20;99.90
7212;DHT22;3647;48.792;9.802;2023-02-01T10:46:48;5.20;99.90
7212;DHT22;3647;48.792;9.802;2023-02-01T10:49:18;5.40;99.90
7212;DHT22;3647;48.792;9.802;2023-02-01T10:51:48;5.50;99.90
7212;DHT22;3647;48.792;9.802;2023-02-01T10:54:18;5.50;99.90
7212;DHT22;3647;48.792;9.802;2023-02-01T10:56:48;5.50;99.90
7212;DHT22;3647;48.792;9.802;2023-02-01T10:59:16;5.50;99.90
7212;DHT22;3647;48.792;9.802;2023-02-01T11:01:46;5.50;99.90
7212;DHT22;3647;48.792;9.802;2023-02-01T11:04:15;5.50;99.90
7212;DHT22;3647;48.792;9.802;2023-02-01T11:06:44;5.50;99.90
7212;DHT22;3647;48.792;9.802;2023-02-01T11:09:17;5.50;99.90
7212;DHT22;3647;48.792;9.802;2023-02-01T11:11:58;5.80;99.90
7212;DHT22;3647;48.792;9.802;2023-02-01T11:14:35;5.50;99.90
7212;DHT22;3647;48.792;9.802;2023-02-01T11:17:20;5.50;99.90
7212;DHT22;3647;48.792;9.802;2023-02-01T11:19:57;5.60;99.90
7212;DHT22;3647;48.792;9.802;2023-02-01T11:22:25;6.00;99.90
7212;DHT22;3647;48.792;9.802;2023-02-01T11:24:52;5.50;99.90
7212;DHT22;3647;48.792;9.802;2023-02-01T11:27:23;5.20;99.90
7212;DHT22;3647;48.792;9.802;2023-02-01T11:29:52;5.50;99.90
7212;DHT22;3647;48.792;9.802;2023-02-01T11:32:21;5.50;99.90
7212;DHT22;3647;48.792;9.802;2023-02-01T11:34:53;5.40;99.90
7212;DHT22;3647;48.792;9.802;2023-02-01T11:37:21;5.40;99.90
7212;DHT22;3647;48.792;9.802;2023-02-01T11:39:57;5.40;99.90
7212;DHT22;3647;48.792;9.802;2023-02-01T11:42:26;5.40;99.90
7212;DHT22;3647;48.792;9.802;2023-02-01T11:45:17;5.40;99.90
7212;DHT22;3647;48.792;9.802;2023-02-01T11:47:45;5.40;99.90
7212;DHT22;3647;48.792;9.802;2023-02-01T11:50:15;5.50;99.90
7212;DHT22;3647;48.792;9.802;2023-02-01T11:53:09;5.50;99.90
7212;DHT22;3647;48.792;9.802;2023-02-01T11:55:56;5.40;99.90
7212;DHT22;3647;48.792;9.802;2023-02-01T11:58:46;5.50;99.90
7212;DHT22;3647;48.792;9.802;2023-02-01T12:07:20;5.60;99.90
7212;DHT22;3647;48.792;9.802;2023-02-01T12:09:58;5.80;99.90
7212;DHT22;3647;48.792;9.802;2023-02-01T12:12:36;5.70;99.90
7212;DHT22;3647;48.792;9.802;2023-02-01T12:15:19;5.70;99.90
7212;DHT22;3647;48.792;9.802;2023-02-01T12:18:03;5.90;99.90
7212;DHT22;3647;48.792;9.802;2023-02-01T12:20:54;5.70;99.90
7212;DHT22;3647;48.792;9.802;2023-02-01T12:23:36;5.70;99.90
7212;DHT22;3647;48.792;9.802;2023-02-01T12:26:21;5.70;99.90
7212;DHT22;3647;48.792;9.802;2023-02-01T12:29:07;5.70;99.90
7212;DHT22;3647;48.792;9.802;2023-02-01T12:31:55;5.60;99.90
7212;DHT22;3647;48.792;9.802;2023-02-01T12:34:44;5.60;99.90
7212;DHT22;3647;48.792;9.802;2023-02-01T12:37:21;5.60;99.90
7212;DHT22;3647;48.792;9.802;2023-02-01T12:39:56;5.60;99.90
7212;DHT22;3647;48.792;9.802;2023-02-01T12:42:30;5.60;99.90
7212;DHT22;3647;48.792;9.802;2023-02-01T12:45:02;5.60;99.90
7212;DHT22;3647;48.792;9.802;2023-02-01T12:47:40;5.60;99.90
7212;DHT22;3647;48.792;9.802;2023-02-01T12:50:14;5.70;99.90
7212;DHT22;3647;48.792;9.802;2023-02-01T12:52:49;5.40;99.90
7212;DHT22;3647;48.792;9.802;2023-02-01T12:55:19;5.60;99.90
7212;DHT22;3647;48.792;9.802;2023-02-01T12:57:50;5.60;99.90
7212;DHT22;3647;48.792;9.802;2023-02-01T13:00:27;5.90;99.90
7212;DHT22;3647;48.792;9.802;2023-02-01T13:03:00;5.60;99.90
7212;DHT22;3647;48.792;9.802;2023-02-01T13:05:36;5.60;99.90
7212;DHT22;3647;48.792;9.802;2023-02-01T13:08:09;5.60;99.90
7212;DHT22;3647;48.792;9.802;2023-02-01T13:10:38;5.60;99.90
7212;DHT22;3647;48.792;9.802;2023-02-01T13:13:12;5.60;99.90
7212;DHT22;3647;48.792;9.802;2023-02-01T13:15:43;6.20;99.90
7212;DHT22;3647;48.792;9.802;2023-02-01T13:18:16;5.70;99.90
7212;DHT22;3647;48.792;9.802;2023-02-01T13:20:49;5.70;99.90
7212;DHT22;3647;48.792;9.802;2023-02-01T13:23:23;5.70;99.90
7212;DHT22;3647;48.792;9.802;2023-02-01T13:25:53;5.60;99.90
7212;DHT22;3647;48.792;9.802;2023-02-01T13:28:25;5.70;99.90
7212;DHT22;3647;48.792;9.802;2023-02-01T13:31:05;5.60;99.90
7212;DHT22;3647;48.792;9.802;2023-02-01T13:33:56;5.60;99.90
7212;DHT22;3647;48.792;9.802;2023-02-01T13:39:48;5.90;99.90
7212;DHT22;3647;48.792;9.802;2023-02-01T13:42:21;5.70;99.90
7212;DHT22;3647;48.792;9.802;2023-02-01T13:44:51;5.70;99.90
7212;DHT22;3647;48.792;9.802;2023-02-01T13:47:24;5.70;99.90
7212;DHT22;3647;48.792;9.802;2023-02-01T13:49:53;5.70;99.90
7212;DHT22;3647;48.792;9.802;2023-02-01T13:52:32;5.70;99.90
7212;DHT22;3647;48.792;9.802;2023-02-01T13:55:16;4.20;99.90
7212;DHT22;3647;48.792;9.802;2023-02-01T13:57:51;5.70;99.90
7212;DHT22;3647;48.792;9.802;2023-02-01T14:00:27;5.60;99.90
7212;DHT22;3647;48.792;9.802;2023-02-01T14:03:12;5.60;99.90
7212;DHT22;3647;48.792;9.802;2023-02-01T14:06:00;5.70;99.90
7212;DHT22;3647;48.792;9.802;2023-02-01T14:08:42;5.70;99.90
7212;DHT22;3647;48.792;9.802;2023-02-01T14:11:34;5.70;99.90
7212;DHT22;3647;48.792;9.802;2023-02-01T14:23:27;5.50;99.90
7212;DHT22;3647;48.792;9.802;2023-02-01T14:26:18;5.40;99.90
7212;DHT22;3647;48.792;9.802;2023-02-01T14:28:59;5.40;99.90
7212;DHT22;3647;48.792;9.802;2023-02-01T14:31:43;5.50;99.90
7212;DHT22;3647;48.792;9.802;2023-02-01T14:34:16;5.60;99.90
7212;DHT22;3647;48.792;9.802;2023-02-01T14:36:50;5.70;99.90
7212;DHT22;3647;48.792;9.802;2023-02-01T14:39:34;5.70;99.90
7212;DHT22;3647;48.792;9.802;2023-02-01T14:42:05;5.60;99.90
7212;DHT22;3647;48.792;9.802;2023-02-01T14:44:35;5.50;99.90
7212;DHT22;3647;48.792;9.802;2023-02-01T14:49:54;5.60;99.90
7212;DHT22;3647;48.792;9.802;2023-02-01T14:52:29;5.60;99.90
7212;DHT22;3647;48.792;9.802;2023-02-01T14:55:03;5.60;99.90
7212;DHT22;3647;48.792;9.802;2023-02-01T14:57:34;5.60;99.90
7212;DHT22;3647;48.792;9.802;2023-02-01T15:00:11;6.30;99.90
7212;DHT22;3647;48.792;9.802;2023-02-01T15:02:41;5.60;99.90
7212;DHT22;3647;48.792;9.802;2023-02-01T15:05:23;5.50;99.90
7212;DHT22;3647;48.792;9.802;2023-02-01T15:07:51;5.50;99.90
7212;DHT22;3647;48.792;9.802;2023-02-01T15:10:21;5.50;99.90
7212;DHT22;3647;48.792;9.802;2023-02-01T15:12:48;5.60;99.90
7212;DHT22;3647;48.792;9.802;2023-02-01T15:15:18;5.50;99.90
7212;DHT22;3647;48.792;9.802;2023-02-01T15:17:50;5.50;99.90
7212;DHT22;3647;48.792;9.802;2023-02-01T15:20:19;5.50;99.90
7212;DHT22;3647;48.792;9.802;2023-02-01T15:22:57;5.40;99.90
7212;DHT22;3647;48.792;9.802;2023-02-01T15:25:28;5.50;99.90
7212;DHT22;3647;48.792;9.802;2023-02-01T15:27:55;5.50;99.90
7212;DHT22;3647;48.792;9.802;2023-02-01T15:30:24;5.50;99.90
7212;DHT22;3647;48.792;9.802;2023-02-01T15:33:03;5.50;99.90
7212;DHT22;3647;48.792;9.802;2023-02-01T15:35:35;5.50;99.90
7212;DHT22;3647;48.792;9.802;2023-02-01T15:38:34;5.50;99.90
7212;DHT22;3647;48.792;9.802;2023-02-01T15:41:06;5.50;99.90
7212;DHT22;3647;48.792;9.802;2023-02-01T15:43:36;5.60;99.90
7212;DHT22;3647;48.792;9.802;2023-02-01T15:46:08;5.60;99.90
7212;DHT22;3647;48.792;9.802;2023-02-01T15:48:38;5.60;99.90
7212;DHT22;3647;48.792;9.802;2023-02-01T15:51:10;5.60;99.90
7212;DHT22;3647;48.792;9.802;2023-02-01T15:53:37;5.60;99.90
7212;DHT22;3647;48.792;9.802;2023-02-01T15:56:06;5.80;99.90
7212;DHT22;3647;48.792;9.802;2023-02-01T15:58:33;5.60;99.90
7212;DHT22;3647;48.792;9.802;2023-02-01T16:01:02;5.70;99.90
7212;DHT22;3647;48.792;9.802;2023-02-01T16:03:37;5.70;99.90
7212;DHT22;3647;48.792;9.802;2023-02-01T16:06:06;5.70;99.90
7212;DHT22;3647;48.792;9.802;2023-02-01T16:08:34;5.80;99.90
7212;DHT22;3647;48.792;9.802;2023-02-01T16:11:22;5.80;99.90
7212;DHT22;3647;48.792;9.802;2023-02-01T16:13:49;5.80;99.90
7212;DHT22;3647;48.792;9.802;2023-02-01T16:16:16;5.80;99.90
7212;DHT22;3647;48.792;9.802;2023-02-01T16:18:43;5.80;99.90
7212;DHT22;3647;48.792;9.802;2023-02-01T16:21:10;5.80;99.90
7212;DHT22;3647;48.792;9.802;2023-02-01T16:23:37;5.70;99.90
7212;DHT22;3647;48.792;9.802;2023-02-01T16:26:04;5.70;99.90
7212;DHT22;3647;48.792;9.802;2023-02-01T16:28:33;5.60;99.90
7212;DHT22;3647;48.792;9.802;2023-02-01T16:31:00;5.60;99.90
7212;DHT22;3647;48.792;9.802;2023-02-01T16:33:27;5.60;99.90
7212;DHT22;3647;48.792;9.802;2023-02-01T16:35:56;6.30;99.90
7212;DHT22;3647;48.792;9.802;2023-02-01T16:38:25;5.60;99.90
7212;DHT22;3647;48.792;9.802;2023-02-01T16:40:52;5.70;99.90
7212;DHT22;3647;48.792;9.802;2023-02-01T16:43:21;5.60;99.90
7212;DHT22;3647;48.792;9.802;2023-02-01T16:45:51;5.50;99.90
7212;DHT22;3647;48.792;9.802;2023-02-01T16:48:21;5.40;99.90
7212;DHT22;3647;48.792;9.802;2023-02-01T16:50:51;5.40;99.90
7212;DHT22;3647;48.792;9.802;2023-02-01T16:53:19;5.80;99.90
7212;DHT22;3647;48.792;9.802;2023-02-01T16:55:46;5.40;99.90
7212;DHT22;3647;48.792;9.802;2023-02-01T16:58:15;5.40;99.90
7212;DHT22;3647;48.792;9.802;2023-02-01T17:00:42;5.40;99.90
7212;DHT22;3647;48.792;9.802;2023-02-01T17:03:11;5.40;99.90
7212;DHT22;3647;48.792;9.802;2023-02-01T17:05:42;5.40;99.90
7212;DHT22;3647;48.792;9.802;2023-02-01T17:08:13;5.40;99.90
7212;DHT22;3647;48.792;9.802;2023-02-01T17:10:41;5.30;99.90
7212;DHT22;3647;48.792;9.802;2023-02-01T17:13:11;5.40;99.90
7212;DHT22;3647;48.792;9.802;2023-02-01T17:15:38;5.40;99.90
7212;DHT22;3647;48.792;9.802;2023-02-01T17:18:07;5.30;99.90
7212;DHT22;3647;48.792;9.802;2023-02-01T17:20:36;5.40;99.90
7212;DHT22;3647;48.792;9.802;2023-02-01T17:23:03;5.30;99.90
7212;DHT22;3647;48.792;9.802;2023-02-01T17:25:30;5.40;99.90
7212;DHT22;3647;48.792;9.802;2023-02-01T17:27:57;5.40;99.90
7212;DHT22;3647;48.792;9.802;2023-02-01T17:30:24;5.40;99.90
7212;DHT22;3647;48.792;9.802;2023-02-01T17:32:51;5.90;99.90
7212;DHT22;3647;48.792;9.802;2023-02-01T17:35:22;5.40;99.90
7212;DHT22;3647;48.792;9.802;2023-02-01T17:37:51;5.30;99.90
7212;DHT22;3647;48.792;9.802;2023-02-01T17:40:18;5.30;99.90
7212;DHT22;3647;48.792;9.802;2023-02-01T17:42:45;5.30;99.90
7212;DHT22;3647;48.792;9.802;2023-02-01T17:45:21;6.30;99.90
7212;DHT22;3647;48.792;9.802;2023-02-01T17:47:49;5.40;99.90
7212;DHT22;3647;48.792;9.802;2023-02-01T17:50:16;5.30;99.90
7212;DHT22;3647;48.792;9.802;2023-02-01T17:52:43;5.40;99.90
7212;DHT22;3647;48.792;9.802;2023-02-01T17:55:19;5.40;99.90
7212;DHT22;3647;48.792;9.802;2023-02-01T17:57:47;5.40;99.90
7212;DHT22;3647;48.792;9.802;2023-02-01T18:00:15;5.40;99.90
7212;DHT22;3647;48.792;9.802;2023-02-01T18:02:42;5.40;99.90
7212;DHT22;3647;48.792;9.802;2023-02-01T18:05:13;5.40;99.90
7212;DHT22;3647;48.792;9.802;2023-02-01T18:07:41;5.30;99.90
7212;DHT22;3647;48.792;9.802;2023-02-01T18:10:09;5.30;99.90
7212;DHT22;3647;48.792;9.802;2023-02-01T18:12:38;5.30;99.90
7212;DHT22;3647;48.792;9.802;2023-02-01T18:15:16;5.30;99.90
7212;DHT22;3647;48.792;9.802;2023-02-01T18:17:45;5.30;99.90
7212;DHT22;3647;48.792;9.802;2023-02-01T18:20:13;5.30;99.90
7212;DHT22;3647;48.792;9.802;2023-02-01T18:22:42;5.30;99.90
7212;DHT22;3647;48.792;9.802;2023-02-01T18:25:15;5.30;99.90
7212;DHT22;3647;48.792;9.802;2023-02-01T18:27:44;5.20;99.90
7212;DHT22;3647;48.792;9.802;2023-02-01T18:30:11;5.30;99.90
7212;DHT22;3647;48.792;9.802;2023-02-01T18:32:39;5.20;99.90
7212;DHT22;3647;48.792;9.802;2023-02-01T18:35:18;5.30;99.90
7212;DHT22;3647;48.792;9.802;2023-02-01T18:37:45;5.30;99.90
7212;DHT22;3647;48.792;9.802;2023-02-01T18:40:14;5.30;99.90
7212;DHT22;3647;48.792;9.802;2023-02-01T18:42:42;5.20;99.90
7212;DHT22;3647;48.792;9.802;2023-02-01T18:45:32;5.30;99.90
7212;DHT22;3647;48.792;9.802;2023-02-01T18:48:00;5.20;99.90
7212;DHT22;3647;48.792;9.802;2023-02-01T18:50:28;5.20;99.90
7212;DHT22;3647;48.792;9.802;2023-02-01T18:52:57;5.20;99.90
7212;DHT22;3647;48.792;9.802;2023-02-01T18:55:25;5.20;99.90
7212;DHT22;3647;48.792;9.802;2023-02-01T18:57:52;5.20;99.90
7212;DHT22;3647;48.792;9.802;2023-02-01T19:00:20;5.20;99.90
7212;DHT22;3647;48.792;9.802;2023-02-01T19:02:49;5.20;99.90
7212;DHT22;3647;48.792;9.802;2023-02-01T19:05:16;5.10;99.90
7212;DHT22;3647;48.792;9.802;2023-02-01T19:07:44;5.20;99.90
7212;DHT22;3647;48.792;9.802;2023-02-01T19:10:13;5.10;99.90
7212;DHT22;3647;48.792;9.802;2023-02-01T19:12:40;5.10;99.90
7212;DHT22;3647;48.792;9.802;2023-02-01T19:15:09;5.10;99.90
7212;DHT22;3647;48.792;9.802;2023-02-01T19:17:40;5.10;99.90
7212;DHT22;3647;48.792;9.802;2023-02-01T19:20:10;5.10;99.90
7212;DHT22;3647;48.792;9.802;2023-02-01T19:22:37;5.10;99.90
7212;DHT22;3647;48.792;9.802;2023-02-01T19:25:05;5.10;99.90
7212;DHT22;3647;48.792;9.802;2023-02-01T19:27:32;5.10;99.90
7212;DHT22;3647;48.792;9.802;2023-02-01T19:29:59;5.30;99.90
7212;DHT22;3647;48.792;9.802;2023-02-01T19:32:26;5.10;99.90
7212;DHT22;3647;48.792;9.802;2023-02-01T19:34:53;5.10;99.90
7212;DHT22;3647;48.792;9.802;2023-02-01T19:37:21;5.00;99.90
7212;DHT22;3647;48.792;9.802;2023-02-01T19:39:48;5.10;99.90
7212;DHT22;3647;48.792;9.802;2023-02-01T19:42:14;5.10;99.90
7212;DHT22;3647;48.792;9.802;2023-02-01T19:44:41;5.10;99.90
7212;DHT22;3647;48.792;9.802;2023-02-01T19:47:08;5.10;99.90
7212;DHT22;3647;48.792;9.802;2023-02-01T19:49:35;5.10;99.90
7212;DHT22;3647;48.792;9.802;2023-02-01T19:52:02;5.10;99.90
7212;DHT22;3647;48.792;9.802;2023-02-01T19:54:30;5.20;99.90
7212;DHT22;3647;48.792;9.802;2023-02-01T19:56:57;5.00;99.90
7212;DHT22;3647;48.792;9.802;2023-02-01T19:59:24;5.10;99.90
7212;DHT22;3647;48.792;9.802;2023-02-01T20:01:51;5.10;99.90
7212;DHT22;3647;48.792;9.802;2023-02-01T20:04:18;5.10;99.90
7212;DHT22;3647;48.792;9.802;2023-02-01T20:06:46;5.10;99.90
7212;DHT22;3647;48.792;9.802;2023-02-01T20:09:16;5.20;99.90
7212;DHT22;3647;48.792;9.802;2023-02-01T20:11:44;5.10;99.90
7212;DHT22;3647;48.792;9.802;2023-02-01T20:14:11;5.10;99.90
7212;DHT22;3647;48.792;9.802;2023-02-01T20:16:38;5.10;99.90
7212;DHT22;3647;48.792;9.802;2023-02-01T20:19:06;5.10;99.90
7212;DHT22;3647;48.792;9.802;2023-02-01T20:21:35;5.40;99.90
7212;DHT22;3647;48.792;9.802;2023-02-01T20:24:02;6.40;99.90
7212;DHT22;3647;48.792;9.802;2023-02-01T20:26:30;5.10;99.90
7212;DHT22;3647;48.792;9.802;2023-02-01T20:28:59;5.10;99.90
7212;DHT22;3647;48.792;9.802;2023-02-01T20:31:27;7.10;99.90
7212;DHT22;3647;48.792;9.802;2023-02-01T20:33:55;5.20;99.90
7212;DHT22;3647;48.792;9.802;2023-02-01T20:36:22;5.40;99.90
7212;DHT22;3647;48.792;9.802;2023-02-01T20:38:49;5.20;99.90
7212;DHT22;3647;48.792;9.802;2023-02-01T20:41:16;5.20;99.90
7212;DHT22;3647;48.792;9.802;2023-02-01T20:43:43;5.20;99.90
7212;DHT22;3647;48.792;9.802;2023-02-01T20:46:12;5.20;99.90
7212;DHT22;3647;48.792;9.802;2023-02-01T20:48:42;5.40;99.90
7212;DHT22;3647;48.792;9.802;2023-02-01T20:51:10;5.10;99.90
7212;DHT22;3647;48.792;9.802;2023-02-01T20:53:37;5.20;99.90
7212;DHT22;3647;48.792;9.802;2023-02-01T20:56:05;5.10;99.90
7212;DHT22;3647;48.792;9.802;2023-02-01T20:58:32;5.10;99.90
7212;DHT22;3647;48.792;9.802;2023-02-01T21:00:59;5.40;99.90
7212;DHT22;3647;48.792;9.802;2023-02-01T21:03:27;5.10;99.90
7212;DHT22;3647;48.792;9.802;2023-02-01T21:05:56;5.00;99.90
7212;DHT22;3647;48.792;9.802;2023-02-01T21:08:23;5.00;99.90
7212;DHT22;3647;48.792;9.802;2023-02-01T21:10:54;5.00;99.90
7212;DHT22;3647;48.792;9.802;2023-02-01T21:13:22;5.40;99.90
7212;DHT22;3647;48.792;9.802;2023-02-01T21:15:48;5.00;99.90
7212;DHT22;3647;48.792;9.802;2023-02-01T21:18:16;5.00;99.90
7212;DHT22;3647;48.792;9.802;2023-02-01T21:20:44;5.00;99.90
7212;DHT22;3647;48.792;9.802;2023-02-01T21:23:12;5.10;99.90
7212;DHT22;3647;48.792;9.802;2023-02-01T21:25:40;5.00;99.90
7212;DHT22;3647;48.792;9.802;2023-02-01T21:28:07;5.10;99.90
7212;DHT22;3647;48.792;9.802;2023-02-01T21:30:34;5.10;99.90
7212;DHT22;3647;48.792;9.802;2023-02-01T21:33:00;5.10;99.90
7212;DHT22;3647;48.792;9.802;2023-02-01T21:35:28;5.10;99.90
7212;DHT22;3647;48.792;9.802;2023-02-01T21:37:56;5.10;99.90
7212;DHT22;3647;48.792;9.802;2023-02-01T21:40:23;5.00;99.90
7212;DHT22;3647;48.792;9.802;2023-02-01T21:42:50;5.00;99.90
7212;DHT22;3647;48.792;9.802;2023-02-01T21:45:17;5.00;99.90
7212;DHT22;3647;48.792;9.802;2023-02-01T21:47:44;5.10;99.90
